Time;durP1;ratioP1;P1;durP2;ratioP2;P2;SDS_P1;SDS_P2;PMS_P1;PMS_P2;Temp;Humidity;BMP_temperature;BMP_pressure;BME280_temperature;BME280_humidity;BME280_pressure;Samples;Min_cycle;Max_cycle;Signal;HPM_P1;HPM_P2
2021/04/29 06:07:05;;;;;;;92.82;37.72;;;;;;;;;;5064453;28;20411;-70
2021/04/29 06:09:30;;;;;;;92.78;36.60;;;;;;;;;;5066029;28;20380;-70
2021/04/29 06:11:55;;;;;;;86.80;34.67;;;;;;;;;;5059455;28;20021;-70
2021/04/29 06:14:21;;;;;;;78.28;34.53;;;;;;;;;;5067228;28;20016;-69
2021/04/29 06:16:46;;;;;;;103.82;35.60;;;;;;;;;;5067100;28;20498;-68
2021/04/29 06:19:12;;;;;;;83.28;32.33;;;;;;;;;;5067260;28;20048;-68
2021/04/29 06:21:37;;;;;;;81.80;34.30;;;;;;;;;;5066464;28;20111;-66
2021/04/29 06:24:03;;;;;;;117.32;35.90;;;;;;;;;;5068243;28;20031;-66
2021/04/29 06:26:30;;;;;;;81.78;34.05;;;;;;;;;;5067653;28;20496;-65
2021/04/29 06:28:56;;;;;;;75.10;33.33;;;;;;;;;;5035111;28;20032;-67
2021/04/29 06:31:21;;;;;;;85.70;33.42;;;;;;;;;;5061270;28;20013;-71
2021/04/29 06:33:46;;;;;;;83.65;30.98;;;;;;;;;;5061166;28;20052;-67
2021/04/29 06:36:12;;;;;;;80.78;34.13;;;;;;;;;;5058888;28;20017;-67
2021/04/29 06:38:37;;;;;;;81.63;34.25;;;;;;;;;;5065586;28;20016;-66
2021/04/29 06:41:03;;;;;;;79.95;32.08;;;;;;;;;;5052304;28;20012;-63
2021/04/29 06:43:29;;;;;;;81.28;32.45;;;;;;;;;;5064841;28;20111;-64
2021/04/29 06:45:54;;;;;;;76.43;32.60;;;;;;;;;;5056018;28;20064;-66
2021/04/29 06:48:20;;;;;;;78.55;33.40;;;;;;;;;;5062373;28;20021;-69
2021/04/29 06:50:45;;;;;;;87.90;34.72;;;;;;;;;;5050643;28;20025;-66
2021/04/29 06:53:11;;;;;;;87.25;34.83;;;;;;;;;;5062128;28;20021;-65
2021/04/29 06:55:36;;;;;;;82.70;32.28;;;;;;;;;;5056395;28;20016;-67
2021/04/29 06:58:02;;;;;;;76.35;33.05;;;;;;;;;;5061876;28;20147;-61
2021/04/29 07:00:28;;;;;;;74.00;33.08;;;;;;;;;;5067446;28;20052;-68
2021/04/29 07:02:56;;;;;;;74.57;29.85;;;;;;;;;;5050381;28;20016;-71
2021/04/29 07:05:22;;;;;;;72.70;30.87;;;;;;;;;;5063963;28;20489;-65
2021/04/29 07:07:51;;;;;;;76.93;31.25;;;;;;;;;;5090391;28;20899;-63
2021/04/29 07:10:17;;;;;;;69.35;31.20;;;;;;;;;;5053400;28;20056;-67
2021/04/29 07:12:42;;;;;;;78.72;30.58;;;;;;;;;;5059378;28;20091;-66
2021/04/29 07:15:08;;;;;;;65.60;29.52;;;;;;;;;;5060728;28;20032;-65
2021/04/29 07:17:33;;;;;;;69.53;28.73;;;;;;;;;;5046108;28;20028;-64
2021/04/29 07:19:59;;;;;;;65.00;28.83;;;;;;;;;;5037226;28;20074;-65
2021/04/29 07:22:24;;;;;;;69.93;29.13;;;;;;;;;;5049262;28;20025;-66
2021/04/29 07:24:49;;;;;;;70.28;29.38;;;;;;;;;;5034798;28;20492;-66
2021/04/29 07:27:15;;;;;;;73.75;29.42;;;;;;;;;;5047057;28;20032;-66
2021/04/29 07:29:40;;;;;;;66.88;29.05;;;;;;;;;;5041744;28;20017;-63
2021/04/29 07:32:06;;;;;;;63.97;27.75;;;;;;;;;;5033628;28;20028;-66
2021/04/29 07:34:31;;;;;;;65.07;27.33;;;;;;;;;;5035573;28;20017;-64
2021/04/29 07:36:58;;;;;;;59.33;26.15;;;;;;;;;;5043028;28;20049;-65
2021/04/29 07:39:23;;;;;;;65.00;28.50;;;;;;;;;;5050034;28;20024;-65
2021/04/29 07:41:48;;;;;;;64.65;26.45;;;;;;;;;;5052595;28;20102;-65
2021/04/29 07:44:15;;;;;;;64.82;30.95;;;;;;;;;;5045629;28;20488;-64
2021/04/29 07:46:41;;;;;;;62.10;26.58;;;;;;;;;;5034056;28;20486;-65
2021/04/29 07:49:06;;;;;;;61.35;27.02;;;;;;;;;;5033854;28;20051;-64
2021/04/29 07:51:32;;;;;;;51.47;24.33;;;;;;;;;;5037342;28;20096;-65
2021/04/29 07:53:57;;;;;;;60.53;26.58;;;;;;;;;;5033565;28;20104;-64
2021/04/29 07:56:23;;;;;;;58.92;24.85;;;;;;;;;;5033345;28;20092;-65
2021/04/29 07:58:48;;;;;;;50.75;22.67;;;;;;;;;;5033439;28;20020;-65
2021/04/29 08:01:14;;;;;;;55.47;25.48;;;;;;;;;;5034906;28;20100;-65
2021/04/29 08:03:39;;;;;;;52.22;23.52;;;;;;;;;;5032370;28;20013;-65
2021/04/29 08:06:05;;;;;;;46.25;22.23;;;;;;;;;;5032974;28;20046;-64
2021/04/29 08:08:30;;;;;;;52.60;22.13;;;;;;;;;;5037757;28;20044;-64
2021/04/29 08:10:55;;;;;;;48.60;22.40;;;;;;;;;;5031587;28;20068;-64
2021/04/29 08:13:21;;;;;;;45.10;23.23;;;;;;;;;;5035794;28;20013;-64
2021/04/29 08:15:46;;;;;;;57.40;21.98;;;;;;;;;;5033101;28;20124;-64
2021/04/29 08:18:12;;;;;;;46.47;22.10;;;;;;;;;;5034924;28;20064;-66
2021/04/29 08:20:38;;;;;;;45.13;21.75;;;;;;;;;;5032607;28;20029;-65
2021/04/29 08:23:04;;;;;;;43.65;23.17;;;;;;;;;;5027351;28;20020;-65
2021/04/29 08:25:29;;;;;;;42.00;21.15;;;;;;;;;;5045571;28;20021;-65
2021/04/29 08:27:55;;;;;;;41.20;21.27;;;;;;;;;;5039166;28;20040;-64
2021/04/29 08:30:26;;;;;;;44.53;20.15;;;;;;;;;;5047693;28;20029;-65
2021/04/29 08:32:52;;;;;;;46.03;23.27;;;;;;;;;;5039178;28;20012;-64
2021/04/29 08:35:17;;;;;;;38.35;20.33;;;;;;;;;;5041264;28;20397;-63
2021/04/29 08:37:43;;;;;;;43.08;21.95;;;;;;;;;;5046500;28;20025;-66
2021/04/29 08:40:09;;;;;;;45.03;21.05;;;;;;;;;;5035484;28;20040;-65
2021/04/29 08:42:34;;;;;;;41.83;21.33;;;;;;;;;;5046616;28;20017;-66
2021/04/29 08:45:00;;;;;;;41.88;21.35;;;;;;;;;;5040319;28;20071;-65
2021/04/29 08:47:25;;;;;;;45.80;23.83;;;;;;;;;;5052534;28;20047;-62
2021/04/29 08:49:52;;;;;;;45.10;22.88;;;;;;;;;;5036488;28;20025;-63
2021/04/29 08:52:18;;;;;;;52.50;24.33;;;;;;;;;;5049998;28;20024;-64
2021/04/29 08:54:46;;;;;;;48.15;23.33;;;;;;;;;;5052958;28;20017;-64
2021/04/29 08:57:12;;;;;;;43.45;24.20;;;;;;;;;;5053121;28;20021;-64
2021/04/29 08:59:37;;;;;;;44.40;23.13;;;;;;;;;;5052939;28;20384;-64
2021/04/29 09:02:02;;;;;;;42.08;23.33;;;;;;;;;;5052452;28;20020;-63
2021/04/29 09:04:37;;;;;;;41.80;22.25;;;;;;;;;;5052676;28;20048;-64
2021/04/29 09:07:10;;;;;;;42.65;22.35;;;;;;;;;;5052471;28;20049;-64
2021/04/29 09:09:39;;;;;;;41.10;22.77;;;;;;;;;;5038334;28;20025;-68
2021/04/29 09:12:04;;;;;;;46.00;25.10;;;;;;;;;;5036198;28;20471;-69
2021/04/29 09:14:31;;;;;;;43.78;22.70;;;;;;;;;;5048403;28;20087;-67
2021/04/29 09:16:57;;;;;;;37.88;22.52;;;;;;;;;;5036476;28;20017;-67
2021/04/29 09:19:23;;;;;;;39.65;22.55;;;;;;;;;;5043586;28;20564;-67
2021/04/29 09:21:49;;;;;;;42.30;20.67;;;;;;;;;;5043678;28;20024;-67
2021/04/29 09:24:14;;;;;;;29.30;17.95;;;;;;;;;;5035639;28;20381;-67
2021/04/29 09:26:40;;;;;;;32.65;18.27;;;;;;;;;;5048035;28;20055;-66
2021/04/29 09:29:08;;;;;;;33.53;19.83;;;;;;;;;;5036012;28;20489;-70
2021/04/29 09:31:37;;;;;;;33.60;21.20;;;;;;;;;;5050922;28;20452;-68
2021/04/29 09:34:03;;;;;;;33.78;18.55;;;;;;;;;;5037444;28;20444;-68
2021/04/29 09:36:30;;;;;;;28.38;17.48;;;;;;;;;;5048946;28;20044;-67
2021/04/29 09:38:57;;;;;;;30.80;18.50;;;;;;;;;;5045547;28;20105;-67
2021/04/29 09:41:24;;;;;;;27.77;16.42;;;;;;;;;;5040024;28;20020;-68
2021/04/29 09:43:57;;;;;;;26.80;16.65;;;;;;;;;;5038672;28;20043;-67
2021/04/29 09:46:23;;;;;;;32.25;18.58;;;;;;;;;;5047231;28;20063;-68
2021/04/29 09:48:50;;;;;;;28.67;17.88;;;;;;;;;;5042592;28;20048;-64
2021/04/29 09:51:17;;;;;;;27.15;16.88;;;;;;;;;;5043960;28;20024;-65
2021/04/29 09:53:49;;;;;;;30.80;15.40;;;;;;;;;;5039114;28;20037;-64
2021/04/29 09:56:15;;;;;;;23.50;14.52;;;;;;;;;;5040630;28;20019;-65
2021/04/29 09:58:47;;;;;;;28.52;17.42;;;;;;;;;;5042810;28;20010;-64
2021/04/29 10:01:12;;;;;;;27.55;14.95;;;;;;;;;;5043106;28;20020;-64
2021/04/29 10:03:39;;;;;;;21.88;14.82;;;;;;;;;;5035250;28;20021;-64
2021/04/29 10:06:05;;;;;;;25.05;13.75;;;;;;;;;;5032959;28;20531;-68
2021/04/29 10:08:32;;;;;;;20.83;12.30;;;;;;;;;;5039870;28;20031;-69
2021/04/29 10:10:59;;;;;;;15.80;10.85;;;;;;;;;;5039822;28;20029;-74
2021/04/29 10:13:30;;;;;;;18.08;12.00;;;;;;;;;;5046978;28;20021;-73
2021/04/29 10:15:57;;;;;;;16.60;11.77;;;;;;;;;;5049717;28;20082;-73
2021/04/29 10:18:23;;;;;;;23.48;9.75;;;;;;;;;;5045818;28;20022;-73
2021/04/29 10:20:49;;;;;;;13.35;9.15;;;;;;;;;;5046776;28;20017;-73
2021/04/29 10:23:18;;;;;;;15.30;8.73;;;;;;;;;;5050881;28;20079;-74
2021/04/29 10:25:51;;;;;;;22.45;9.07;;;;;;;;;;5039430;28;20466;-72
2021/04/29 10:28:27;;;;;;;13.43;8.63;;;;;;;;;;5039954;28;20033;-73
2021/04/29 10:30:53;;;;;;;16.75;7.75;;;;;;;;;;5050889;28;20053;-71
2021/04/29 10:33:19;;;;;;;13.90;7.95;;;;;;;;;;5044056;28;20025;-73
2021/04/29 10:36:04;;;;;;;10.23;6.88;;;;;;;;;;5041133;28;20135;-71
2021/04/29 10:38:33;;;;;;;11.15;6.78;;;;;;;;;;5033226;28;20014;-73
2021/04/29 10:41:00;;;;;;;8.70;6.22;;;;;;;;;;5041468;28;20623;-73
2021/04/29 10:43:31;;;;;;;35.85;7.43;;;;;;;;;;5049465;28;20025;-72
2021/04/29 10:45:57;;;;;;;14.60;8.20;;;;;;;;;;5046104;28;20485;-74
2021/04/29 10:48:24;;;;;;;17.00;8.63;;;;;;;;;;5041257;28;20037;-73
2021/04/29 10:50:51;;;;;;;19.98;7.32;;;;;;;;;;5041770;28;20021;-73
2021/04/29 10:53:34;;;;;;;16.02;7.95;;;;;;;;;;5053975;28;20465;-73
2021/04/29 10:56:10;;;;;;;9.60;6.50;;;;;;;;;;5051605;28;20142;-75
2021/04/29 10:58:36;;;;;;;9.98;5.97;;;;;;;;;;5042603;28;20053;-74
2021/04/29 11:01:18;;;;;;;7.40;5.18;;;;;;;;;;5052344;28;20458;-72
2021/04/29 11:03:51;;;;;;;9.85;5.40;;;;;;;;;;5052245;28;20028;-68
2021/04/29 11:06:18;;;;;;;15.45;5.85;;;;;;;;;;5038396;28;20131;-67
2021/04/29 11:08:51;;;;;;;13.52;5.95;;;;;;;;;;5041744;28;20028;-68
2021/04/29 11:11:30;;;;;;;22.25;6.15;;;;;;;;;;5048939;28;20009;-67
2021/04/29 11:13:59;;;;;;;10.48;5.57;;;;;;;;;;5051731;28;20516;-68
2021/04/29 11:16:24;;;;;;;11.38;5.20;;;;;;;;;;5040660;28;20022;-68
2021/04/29 11:18:50;;;;;;;10.93;5.68;;;;;;;;;;5050702;28;20025;-68
2021/04/29 11:21:24;;;;;;;11.75;6.20;;;;;;;;;;5051124;28;20017;-68
2021/04/29 11:23:49;;;;;;;10.93;5.13;;;;;;;;;;5043246;28;20488;-67
2021/04/29 11:26:16;;;;;;;9.50;6.18;;;;;;;;;;5041624;28;20026;-66
2021/04/29 11:28:42;;;;;;;11.65;6.97;;;;;;;;;;5049379;28;20029;-68
2021/04/29 11:31:08;;;;;;;16.25;6.68;;;;;;;;;;5037744;28;20033;-67
2021/04/29 11:33:48;;;;;;;11.25;7.13;;;;;;;;;;5045515;28;20096;-66
2021/04/29 11:36:15;;;;;;;10.73;6.07;;;;;;;;;;5045612;28;20021;-68
2021/04/29 11:38:48;;;;;;;12.57;7.10;;;;;;;;;;5037415;28;20082;-67
2021/04/29 11:41:13;;;;;;;14.98;7.28;;;;;;;;;;5032394;28;20037;-67
2021/04/29 11:43:38;;;;;;;23.15;8.10;;;;;;;;;;5040990;28;20017;-67
2021/04/29 11:46:04;;;;;;;20.55;8.05;;;;;;;;;;5041709;28;20030;-68
2021/04/29 11:48:32;;;;;;;18.33;7.85;;;;;;;;;;5046951;28;20039;-68
2021/04/29 11:50:58;;;;;;;20.55;8.18;;;;;;;;;;5037085;28;20022;-69
2021/04/29 11:53:27;;;;;;;15.38;8.40;;;;;;;;;;5048739;28;20009;-68
2021/04/29 11:56:00;;;;;;;14.90;6.75;;;;;;;;;;5042295;28;20092;-67
2021/04/29 11:58:26;;;;;;;10.98;7.80;;;;;;;;;;5039725;28;20040;-67
2021/04/29 12:00:53;;;;;;;15.18;7.95;;;;;;;;;;5049712;28;20021;-68
2021/04/29 12:03:18;;;;;;;9.27;6.63;;;;;;;;;;5037574;28;20484;-68
2021/04/29 12:05:44;;;;;;;12.73;7.18;;;;;;;;;;5044206;28;20042;-67
2021/04/29 12:08:17;;;;;;;10.63;5.95;;;;;;;;;;5043521;28;20013;-68
2021/04/29 12:10:44;;;;;;;8.88;4.32;;;;;;;;;;5035038;28;20088;-69
2021/04/29 12:13:09;;;;;;;9.13;4.68;;;;;;;;;;5049660;28;20006;-69
2021/04/29 12:15:35;;;;;;;10.63;4.85;;;;;;;;;;5039371;28;20047;-67
2021/04/29 12:18:00;;;;;;;10.70;6.25;;;;;;;;;;5043491;28;20445;-67
2021/04/29 12:20:26;;;;;;;7.90;5.47;;;;;;;;;;5045180;28;20427;-67
2021/04/29 12:22:52;;;;;;;17.77;4.68;;;;;;;;;;5043011;28;20138;-67
2021/04/29 12:25:21;;;;;;;7.05;4.50;;;;;;;;;;5050328;28;20025;-69
2021/04/29 12:27:47;;;;;;;;;;;;;;;;;;5052956;28;20044;-67
2021/04/29 12:30:13;;;;;;;30.13;5.47;;;;;;;;;;5040937;28;19963;-67
2021/04/29 12:32:43;;;;;;;21.98;4.97;;;;;;;;;;5037975;28;20064;-70
2021/04/29 12:35:08;;;;;;;8.68;4.88;;;;;;;;;;5034085;28;20063;-68
2021/04/29 12:37:34;;;;;;;9.77;5.10;;;;;;;;;;5038316;28;20016;-68
2021/04/29 12:40:00;;;;;;;14.68;4.45;;;;;;;;;;5044259;28;20109;-67
2021/04/29 12:42:26;;;;;;;9.15;4.00;;;;;;;;;;5044990;28;20029;-68
2021/04/29 12:45:02;;;;;;;8.35;4.22;;;;;;;;;;5035680;28;20013;-68
2021/04/29 12:47:28;;;;;;;9.30;4.32;;;;;;;;;;5049523;28;20092;-67
2021/04/29 12:50:03;;;;;;;6.55;4.43;;;;;;;;;;5052036;28;20531;-69
2021/04/29 12:52:29;;;;;;;10.30;4.75;;;;;;;;;;5038123;28;20017;-68
2021/04/29 12:54:55;;;;;;;6.63;4.57;;;;;;;;;;5039003;28;20022;-68
2021/04/29 12:57:24;;;;;;;10.18;4.13;;;;;;;;;;5047604;28;20433;-68
2021/04/29 12:59:49;;;;;;;;;;;;;;;;;;5034346;28;20017;-68
2021/04/29 13:02:20;;;;;;;9.13;3.77;;;;;;;;;;5033681;28;19920;-68
2021/04/29 13:04:57;;;;;;;10.30;3.40;;;;;;;;;;5034593;28;20029;-67
2021/04/29 13:07:22;;;;;;;11.18;3.22;;;;;;;;;;5034822;28;20560;-68
2021/04/29 13:09:49;;;;;;;7.25;3.53;;;;;;;;;;5041039;28;20139;-68
2021/04/29 13:12:17;;;;;;;9.13;4.18;;;;;;;;;;5041760;28;20026;-67
2021/04/29 13:14:44;;;;;;;6.30;3.90;;;;;;;;;;5047293;28;20389;-67
2021/04/29 13:17:11;;;;;;;11.57;4.20;;;;;;;;;;5049008;28;20071;-68
2021/04/29 13:19:36;;;;;;;6.82;4.10;;;;;;;;;;5042244;28;20021;-67
2021/04/29 13:22:02;;;;;;;15.23;5.07;;;;;;;;;;5044572;28;20026;-66
2021/04/29 13:24:28;;;;;;;7.15;4.63;;;;;;;;;;5045930;28;20024;-67
2021/04/29 13:26:54;;;;;;;9.05;4.72;;;;;;;;;;5044364;28;20044;-68
2021/04/29 13:29:20;;;;;;;14.52;4.90;;;;;;;;;;5047932;28;20017;-67
2021/04/29 13:31:45;;;;;;;10.45;4.82;;;;;;;;;;5041724;28;20496;-67
2021/04/29 13:34:11;;;;;;;28.77;6.65;;;;;;;;;;5048563;28;20021;-67
2021/04/29 13:36:36;;;;;;;14.20;5.05;;;;;;;;;;5046986;28;20477;-67
2021/04/29 13:39:02;;;;;;;10.88;5.65;;;;;;;;;;5040016;28;20101;-67
2021/04/29 13:41:28;;;;;;;10.38;5.53;;;;;;;;;;5032433;28;20494;-67
2021/04/29 13:43:53;;;;;;;11.35;5.80;;;;;;;;;;5040663;28;20017;-67
2021/04/29 13:46:18;;;;;;;13.38;6.22;;;;;;;;;;5047719;28;20071;-67
2021/04/29 13:48:45;;;;;;;11.55;5.30;;;;;;;;;;5050843;28;20029;-67
2021/04/29 13:51:11;;;;;;;15.20;5.78;;;;;;;;;;5034808;28;20453;-67
2021/04/29 13:53:36;;;;;;;9.80;5.40;;;;;;;;;;5050193;28;20032;-67
2021/04/29 13:56:02;;;;;;;15.00;5.90;;;;;;;;;;5040572;28;20032;-68
2021/04/29 13:58:27;;;;;;;11.48;5.93;;;;;;;;;;5037675;28;20013;-68
2021/04/29 14:00:53;;;;;;;10.98;5.82;;;;;;;;;;5042382;28;20516;-68
2021/04/29 14:03:18;;;;;;;24.05;6.78;;;;;;;;;;5044087;28;20021;-68
2021/04/29 14:05:44;;;;;;;14.65;6.60;;;;;;;;;;5042568;28;20114;-69
2021/04/29 14:08:09;;;;;;;12.27;6.40;;;;;;;;;;5045943;28;20482;-68
2021/04/29 14:10:35;;;;;;;13.65;6.18;;;;;;;;;;5037910;28;20029;-68
2021/04/29 14:13:03;;;;;;;18.83;7.20;;;;;;;;;;5046805;28;20072;-68
2021/04/29 14:15:30;;;;;;;11.75;7.15;;;;;;;;;;5045625;28;20389;-67
2021/04/29 14:17:55;;;;;;;11.52;6.43;;;;;;;;;;5051066;28;20028;-68
2021/04/29 14:20:20;;;;;;;13.20;6.90;;;;;;;;;;5049502;28;20466;-68
2021/04/29 14:22:46;;;;;;;11.68;6.65;;;;;;;;;;5050589;28;20120;-68
2021/04/29 14:25:12;;;;;;;9.20;6.75;;;;;;;;;;5034438;28;20024;-69
2021/04/29 14:27:37;;;;;;;15.52;7.13;;;;;;;;;;5044914;28;20049;-69
2021/04/29 14:30:03;;;;;;;17.88;7.32;;;;;;;;;;5047531;28;20108;-68
2021/04/29 14:32:29;;;;;;;10.05;5.47;;;;;;;;;;5041248;28;20437;-68
2021/04/29 14:34:54;;;;;;;16.05;5.88;;;;;;;;;;5050221;28;20017;-68
2021/04/29 14:37:20;;;;;;;15.98;6.45;;;;;;;;;;5039638;28;20016;-69
2021/04/29 14:39:45;;;;;;;12.20;6.32;;;;;;;;;;5046720;28;20436;-69
2021/04/29 14:42:11;;;;;;;10.25;6.50;;;;;;;;;;5046859;28;20100;-68
2021/04/29 14:44:37;;;;;;;12.73;5.70;;;;;;;;;;5039752;28;20023;-68
2021/04/29 14:47:02;;;;;;;15.82;4.82;;;;;;;;;;5051942;28;20040;-68
2021/04/29 14:49:28;;;;;;;9.35;5.30;;;;;;;;;;5040618;28;20020;-68
2021/04/29 14:51:53;;;;;;;14.15;5.40;;;;;;;;;;5046390;28;20010;-68
2021/04/29 14:54:19;;;;;;;8.40;5.18;;;;;;;;;;5047732;28;20456;-68
2021/04/29 14:56:44;;;;;;;17.27;5.03;;;;;;;;;;5038554;28;20017;-68
2021/04/29 14:59:09;;;;;;;13.15;4.40;;;;;;;;;;5051549;28;20014;-68
2021/04/29 15:01:35;;;;;;;7.75;4.95;;;;;;;;;;5041802;28;20020;-68
2021/04/29 15:04:00;;;;;;;14.68;4.57;;;;;;;;;;5045038;28;20393;-67
2021/04/29 15:06:26;;;;;;;18.30;4.70;;;;;;;;;;5047868;28;20099;-67
2021/04/29 15:08:51;;;;;;;13.38;4.68;;;;;;;;;;5037369;28;20024;-67
2021/04/29 15:11:17;;;;;;;7.72;4.38;;;;;;;;;;5050568;28;20075;-67
2021/04/29 15:13:42;;;;;;;19.10;5.22;;;;;;;;;;5042276;28;20108;-67
2021/04/29 15:16:08;;;;;;;9.90;4.03;;;;;;;;;;5043417;28;20017;-67
2021/04/29 15:18:33;;;;;;;12.20;4.18;;;;;;;;;;5048686;28;20052;-66
2021/04/29 15:20:59;;;;;;;14.50;4.65;;;;;;;;;;5037943;28;20092;-68
2021/04/29 15:23:24;;;;;;;8.68;4.45;;;;;;;;;;5049481;28;20021;-68
2021/04/29 15:25:50;;;;;;;13.50;4.35;;;;;;;;;;5041575;28;20389;-67
2021/04/29 15:28:16;;;;;;;8.85;4.40;;;;;;;;;;5040909;28;20033;-67
2021/04/29 15:30:42;;;;;;;10.60;4.15;;;;;;;;;;5048456;28;20021;-66
2021/04/29 15:33:07;;;;;;;17.08;4.75;;;;;;;;;;5037516;28;21086;-67
2021/04/29 15:35:32;;;;;;;13.02;4.45;;;;;;;;;;5045794;28;20017;-66
2021/04/29 15:37:59;;;;;;;16.25;4.93;;;;;;;;;;5043306;28;20021;-66
2021/04/29 15:40:24;;;;;;;14.68;5.57;;;;;;;;;;5040030;28;20024;-67
2021/04/29 15:42:50;;;;;;;12.77;5.10;;;;;;;;;;5050340;28;20017;-66
2021/04/29 15:45:16;;;;;;;8.68;4.85;;;;;;;;;;5037922;28;20029;-68
2021/04/29 15:47:41;;;;;;;11.50;5.47;;;;;;;;;;5027887;28;20124;-67
2021/04/29 15:50:08;;;;;;;13.52;5.55;;;;;;;;;;5044779;28;20029;-67
2021/04/29 15:52:33;;;;;;;13.95;5.55;;;;;;;;;;5038845;28;20025;-67
2021/04/29 15:54:59;;;;;;;10.80;5.00;;;;;;;;;;5050833;28;20162;-67
2021/04/29 15:57:24;;;;;;;12.13;5.60;;;;;;;;;;5054238;28;20432;-67
2021/04/29 15:59:50;;;;;;;14.10;5.65;;;;;;;;;;5054438;28;20049;-67
2021/04/29 16:02:15;;;;;;;26.55;5.93;;;;;;;;;;5054437;28;20020;-66
2021/04/29 16:04:41;;;;;;;14.38;6.05;;;;;;;;;;5054036;28;20021;-66
